sensor_id;sensor_type;location;lat;lon;timestamp;P1;durP1;ratioP1;P2;durP2;ratioP2
40588;SDS011;26297;49.450;6.640;2022-10-16T00:01:44;2.35;;;0.30;;
40588;SDS011;26297;49.450;6.640;2022-10-16T00:04:50;0.17;;;0.17;;
40588;SDS011;26297;49.450;6.640;2022-10-16T00:07:59;0.30;;;0.30;;
40588;SDS011;26297;49.450;6.640;2022-10-16T00:11:08;1.75;;;0.13;;
40588;SDS011;26297;49.450;6.640;2022-10-16T00:14:14;0.30;;;0.20;;
40588;SDS011;26297;49.450;6.640;2022-10-16T00:17:23;0.20;;;0.20;;
40588;SDS011;26297;49.450;6.640;2022-10-16T00:20:27;1.92;;;0.10;;
40588;SDS011;26297;49.450;6.640;2022-10-16T00:23:27;0.17;;;0.17;;
40588;SDS011;26297;49.450;6.640;2022-10-16T00:26:34;0.50;;;0.40;;
40588;SDS011;26297;49.450;6.640;2022-10-16T00:29:41;0.13;;;0.13;;
40588;SDS011;26297;49.450;6.640;2022-10-16T00:32:48;0.17;;;0.17;;
40588;SDS011;26297;49.450;6.640;2022-10-16T00:35:57;0.15;;;0.10;;
40588;SDS011;26297;49.450;6.640;2022-10-16T00:39:04;1.00;;;0.30;;
40588;SDS011;26297;49.450;6.640;2022-10-16T00:42:17;0.10;;;0.10;;
40588;SDS011;26297;49.450;6.640;2022-10-16T00:45:32;0.52;;;0.20;;
40588;SDS011;26297;49.450;6.640;2022-10-16T00:48:35;0.20;;;0.20;;
40588;SDS011;26297;49.450;6.640;2022-10-16T00:54:53;0.30;;;0.30;;
40588;SDS011;26297;49.450;6.640;2022-10-16T00:57:57;0.65;;;0.40;;
40588;SDS011;26297;49.450;6.640;2022-10-16T01:01:21;0.22;;;0.22;;
40588;SDS011;26297;49.450;6.640;2022-10-16T01:04:33;1.23;;;0.40;;
40588;SDS011;26297;49.450;6.640;2022-10-16T01:07:53;0.20;;;0.20;;
40588;SDS011;26297;49.450;6.640;2022-10-16T01:24:38;1.20;;;0.25;;
40588;SDS011;26297;49.450;6.640;2022-10-16T01:27:49;0.20;;;0.20;;
40588;SDS011;26297;49.450;6.640;2022-10-16T01:30:58;1.00;;;0.20;;
40588;SDS011;26297;49.450;6.640;2022-10-16T01:41:04;2.38;;;0.20;;
40588;SDS011;26297;49.450;6.640;2022-10-16T01:44:36;2.20;;;0.28;;
40588;SDS011;26297;49.450;6.640;2022-10-16T01:47:48;0.15;;;0.10;;
40588;SDS011;26297;49.450;6.640;2022-10-16T01:50:59;0.43;;;0.13;;
40588;SDS011;26297;49.450;6.640;2022-10-16T01:54:32;1.65;;;0.20;;
40588;SDS011;26297;49.450;6.640;2022-10-16T01:57:43;0.35;;;0.30;;
40588;SDS011;26297;49.450;6.640;2022-10-16T02:00:55;0.20;;;0.20;;
40588;SDS011;26297;49.450;6.640;2022-10-16T02:04:18;2.30;;;0.20;;
40588;SDS011;26297;49.450;6.640;2022-10-16T02:07:32;1.02;;;0.22;;
40588;SDS011;26297;49.450;6.640;2022-10-16T02:10:49;0.28;;;0.15;;
40588;SDS011;26297;49.450;6.640;2022-10-16T02:14:29;0.28;;;0.15;;
40588;SDS011;26297;49.450;6.640;2022-10-16T02:17:37;1.65;;;0.30;;
40588;SDS011;26297;49.450;6.640;2022-10-16T02:27:06;0.90;;;0.28;;
40588;SDS011;26297;49.450;6.640;2022-10-16T02:30:21;0.88;;;0.13;;
40588;SDS011;26297;49.450;6.640;2022-10-16T02:33:38;1.75;;;0.30;;
40588;SDS011;26297;49.450;6.640;2022-10-16T02:36:46;0.20;;;0.20;;
40588;SDS011;26297;49.450;6.640;2022-10-16T02:39:51;0.20;;;0.15;;
40588;SDS011;26297;49.450;6.640;2022-10-16T02:42:56;0.68;;;0.20;;
40588;SDS011;26297;49.450;6.640;2022-10-16T02:45:59;0.20;;;0.17;;
40588;SDS011;26297;49.450;6.640;2022-10-16T02:49:09;1.27;;;0.22;;
40588;SDS011;26297;49.450;6.640;2022-10-16T02:52:14;0.40;;;0.40;;
40588;SDS011;26297;49.450;6.640;2022-10-16T02:55:23;0.13;;;0.13;;
40588;SDS011;26297;49.450;6.640;2022-10-16T02:58:36;0.10;;;0.10;;
40588;SDS011;26297;49.450;6.640;2022-10-16T03:01:42;0.15;;;0.15;;
40588;SDS011;26297;49.450;6.640;2022-10-16T03:04:48;0.30;;;0.30;;
40588;SDS011;26297;49.450;6.640;2022-10-16T03:07:52;0.30;;;0.30;;
40588;SDS011;26297;49.450;6.640;2022-10-16T03:10:58;1.65;;;0.40;;
40588;SDS011;26297;49.450;6.640;2022-10-16T03:14:09;2.28;;;0.20;;
40588;SDS011;26297;49.450;6.640;2022-10-16T03:17:22;0.28;;;0.20;;
40588;SDS011;26297;49.450;6.640;2022-10-16T03:20:29;0.63;;;0.10;;
40588;SDS011;26297;49.450;6.640;2022-10-16T03:23:45;0.15;;;0.10;;
40588;SDS011;26297;49.450;6.640;2022-10-16T03:26:51;0.50;;;0.10;;
40588;SDS011;26297;49.450;6.640;2022-10-16T03:30:09;1.00;;;0.30;;
40588;SDS011;26297;49.450;6.640;2022-10-16T03:34:02;0.60;;;0.20;;
40588;SDS011;26297;49.450;6.640;2022-10-16T03:37:19;0.30;;;0.20;;
40588;SDS011;26297;49.450;6.640;2022-10-16T03:40:32;0.20;;;0.10;;
40588;SDS011;26297;49.450;6.640;2022-10-16T03:47:20;2.47;;;0.30;;
40588;SDS011;26297;49.450;6.640;2022-10-16T03:53:41;0.40;;;0.10;;
40588;SDS011;26297;49.450;6.640;2022-10-16T03:56:55;0.32;;;0.10;;
40588;SDS011;26297;49.450;6.640;2022-10-16T04:00:22;0.68;;;0.20;;
40588;SDS011;26297;49.450;6.640;2022-10-16T04:03:47;1.33;;;0.90;;
40588;SDS011;26297;49.450;6.640;2022-10-16T04:06:53;0.70;;;0.60;;
40588;SDS011;26297;49.450;6.640;2022-10-16T04:09:59;3.47;;;0.77;;
40588;SDS011;26297;49.450;6.640;2022-10-16T04:13:08;0.70;;;0.70;;
40588;SDS011;26297;49.450;6.640;2022-10-16T04:16:11;1.42;;;1.20;;
40588;SDS011;26297;49.450;6.640;2022-10-16T04:19:21;9.18;;;6.07;;
40588;SDS011;26297;49.450;6.640;2022-10-16T04:22:29;4.00;;;3.22;;
40588;SDS011;26297;49.450;6.640;2022-10-16T04:25:35;7.28;;;4.25;;
40588;SDS011;26297;49.450;6.640;2022-10-16T04:28:53;4.72;;;3.60;;
40588;SDS011;26297;49.450;6.640;2022-10-16T04:32:04;1.20;;;1.13;;
40588;SDS011;26297;49.450;6.640;2022-10-16T04:35:20;0.82;;;0.68;;
40588;SDS011;26297;49.450;6.640;2022-10-16T04:38:24;0.95;;;0.20;;
40588;SDS011;26297;49.450;6.640;2022-10-16T04:41:42;0.25;;;0.20;;
40588;SDS011;26297;49.450;6.640;2022-10-16T04:44:47;0.40;;;0.38;;
40588;SDS011;26297;49.450;6.640;2022-10-16T04:47:57;5.72;;;0.30;;
40588;SDS011;26297;49.450;6.640;2022-10-16T04:51:14;1.77;;;0.30;;
40588;SDS011;26297;49.450;6.640;2022-10-16T04:54:21;2.10;;;0.50;;
40588;SDS011;26297;49.450;6.640;2022-10-16T04:57:35;1.50;;;0.30;;
40588;SDS011;26297;49.450;6.640;2022-10-16T05:01:05;0.45;;;0.30;;
40588;SDS011;26297;49.450;6.640;2022-10-16T05:04:13;1.20;;;0.10;;
40588;SDS011;26297;49.450;6.640;2022-10-16T05:07:18;0.32;;;0.30;;
40588;SDS011;26297;49.450;6.640;2022-10-16T05:10:21;2.03;;;0.73;;
40588;SDS011;26297;49.450;6.640;2022-10-16T05:13:43;0.50;;;0.50;;
40588;SDS011;26297;49.450;6.640;2022-10-16T05:16:52;2.28;;;0.30;;
40588;SDS011;26297;49.450;6.640;2022-10-16T05:20:04;0.88;;;0.57;;
40588;SDS011;26297;49.450;6.640;2022-10-16T05:23:14;4.80;;;4.25;;
40588;SDS011;26297;49.450;6.640;2022-10-16T05:26:21;2.72;;;1.67;;
40588;SDS011;26297;49.450;6.640;2022-10-16T05:29:33;2.70;;;2.28;;
40588;SDS011;26297;49.450;6.640;2022-10-16T05:32:36;1.30;;;0.70;;
40588;SDS011;26297;49.450;6.640;2022-10-16T05:35:45;0.80;;;0.80;;
40588;SDS011;26297;49.450;6.640;2022-10-16T05:38:56;5.47;;;1.60;;
40588;SDS011;26297;49.450;6.640;2022-10-16T05:41:59;7.22;;;2.70;;
40588;SDS011;26297;49.450;6.640;2022-10-16T05:45:09;0.40;;;0.40;;
40588;SDS011;26297;49.450;6.640;2022-10-16T05:48:18;1.55;;;1.30;;
40588;SDS011;26297;49.450;6.640;2022-10-16T05:51:22;1.27;;;0.50;;
40588;SDS011;26297;49.450;6.640;2022-10-16T05:54:41;0.25;;;0.10;;
40588;SDS011;26297;49.450;6.640;2022-10-16T05:57:53;0.43;;;0.43;;
40588;SDS011;26297;49.450;6.640;2022-10-16T06:01:02;0.38;;;0.30;;
40588;SDS011;26297;49.450;6.640;2022-10-16T06:04:25;0.77;;;0.40;;
40588;SDS011;26297;49.450;6.640;2022-10-16T06:07:33;1.77;;;0.40;;
40588;SDS011;26297;49.450;6.640;2022-10-16T06:10:38;2.55;;;0.30;;
40588;SDS011;26297;49.450;6.640;2022-10-16T06:13:42;1.02;;;0.20;;
40588;SDS011;26297;49.450;6.640;2022-10-16T06:16:52;2.47;;;0.82;;
40588;SDS011;26297;49.450;6.640;2022-10-16T06:20:05;2.05;;;0.65;;
40588;SDS011;26297;49.450;6.640;2022-10-16T06:23:24;1.75;;;0.20;;
40588;SDS011;26297;49.450;6.640;2022-10-16T06:26:31;1.40;;;0.40;;
40588;SDS011;26297;49.450;6.640;2022-10-16T06:29:34;0.65;;;0.57;;
40588;SDS011;26297;49.450;6.640;2022-10-16T06:32:46;1.58;;;0.90;;
40588;SDS011;26297;49.450;6.640;2022-10-16T06:35:53;1.50;;;0.80;;
40588;SDS011;26297;49.450;6.640;2022-10-16T06:39:05;1.50;;;0.68;;
40588;SDS011;26297;49.450;6.640;2022-10-16T06:42:14;1.20;;;0.80;;
40588;SDS011;26297;49.450;6.640;2022-10-16T06:45:21;6.20;;;0.90;;
40588;SDS011;26297;49.450;6.640;2022-10-16T06:48:27;1.90;;;0.73;;
40588;SDS011;26297;49.450;6.640;2022-10-16T06:51:39;0.82;;;0.75;;
40588;SDS011;26297;49.450;6.640;2022-10-16T06:55:00;2.33;;;0.80;;
40588;SDS011;26297;49.450;6.640;2022-10-16T06:58:08;0.68;;;0.68;;
40588;SDS011;26297;49.450;6.640;2022-10-16T07:01:18;2.60;;;2.35;;
40588;SDS011;26297;49.450;6.640;2022-10-16T07:04:29;0.77;;;0.65;;
40588;SDS011;26297;49.450;6.640;2022-10-16T07:07:47;5.10;;;1.30;;
40588;SDS011;26297;49.450;6.640;2022-10-16T07:11:00;4.88;;;1.00;;
40588;SDS011;26297;49.450;6.640;2022-10-16T07:14:05;2.22;;;0.90;;
40588;SDS011;26297;49.450;6.640;2022-10-16T07:17:28;0.98;;;0.80;;
40588;SDS011;26297;49.450;6.640;2022-10-16T07:20:43;2.10;;;1.38;;
40588;SDS011;26297;49.450;6.640;2022-10-16T07:23:50;1.52;;;1.17;;
40588;SDS011;26297;49.450;6.640;2022-10-16T07:27:02;0.55;;;0.55;;
40588;SDS011;26297;49.450;6.640;2022-10-16T07:30:08;5.38;;;1.58;;
40588;SDS011;26297;49.450;6.640;2022-10-16T07:33:17;2.55;;;1.27;;
40588;SDS011;26297;49.450;6.640;2022-10-16T07:36:29;1.75;;;0.80;;
40588;SDS011;26297;49.450;6.640;2022-10-16T07:39:41;0.77;;;0.77;;
40588;SDS011;26297;49.450;6.640;2022-10-16T07:43:04;1.98;;;1.25;;
40588;SDS011;26297;49.450;6.640;2022-10-16T07:46:27;4.03;;;1.70;;
40588;SDS011;26297;49.450;6.640;2022-10-16T07:49:35;3.90;;;3.50;;
40588;SDS011;26297;49.450;6.640;2022-10-16T08:04:20;4.32;;;1.20;;
40588;SDS011;26297;49.450;6.640;2022-10-16T08:07:50;1.17;;;1.05;;
40588;SDS011;26297;49.450;6.640;2022-10-16T08:11:04;1.13;;;0.65;;
40588;SDS011;26297;49.450;6.640;2022-10-16T08:14:14;2.65;;;0.93;;
40588;SDS011;26297;49.450;6.640;2022-10-16T08:27:16;2.08;;;1.25;;
40588;SDS011;26297;49.450;6.640;2022-10-16T08:30:27;2.92;;;1.17;;
40588;SDS011;26297;49.450;6.640;2022-10-16T08:33:47;1.30;;;1.20;;
40588;SDS011;26297;49.450;6.640;2022-10-16T08:36:54;4.85;;;1.52;;
40588;SDS011;26297;49.450;6.640;2022-10-16T08:40:36;1.55;;;1.20;;
40588;SDS011;26297;49.450;6.640;2022-10-16T08:51:07;3.22;;;1.17;;
40588;SDS011;26297;49.450;6.640;2022-10-16T08:54:36;2.28;;;1.30;;
40588;SDS011;26297;49.450;6.640;2022-10-16T08:57:53;1.10;;;1.00;;
40588;SDS011;26297;49.450;6.640;2022-10-16T09:01:27;1.13;;;1.02;;
40588;SDS011;26297;49.450;6.640;2022-10-16T09:12:43;1.38;;;1.27;;
40588;SDS011;26297;49.450;6.640;2022-10-16T09:19:41;1.65;;;1.55;;
40588;SDS011;26297;49.450;6.640;2022-10-16T09:26:32;1.60;;;1.50;;
40588;SDS011;26297;49.450;6.640;2022-10-16T09:30:10;3.95;;;1.77;;
40588;SDS011;26297;49.450;6.640;2022-10-16T09:33:38;2.17;;;1.70;;
40588;SDS011;26297;49.450;6.640;2022-10-16T09:37:41;1.65;;;1.55;;
40588;SDS011;26297;49.450;6.640;2022-10-16T09:40:52;2.95;;;1.98;;
40588;SDS011;26297;49.450;6.640;2022-10-16T09:44:46;1.60;;;1.50;;
40588;SDS011;26297;49.450;6.640;2022-10-16T09:48:19;2.35;;;1.50;;
40588;SDS011;26297;49.450;6.640;2022-10-16T09:51:48;1.95;;;1.80;;
40588;SDS011;26297;49.450;6.640;2022-10-16T09:55:32;1.85;;;1.55;;
40588;SDS011;26297;49.450;6.640;2022-10-16T10:02:48;1.98;;;1.50;;
40588;SDS011;26297;49.450;6.640;2022-10-16T10:14:03;1.45;;;1.20;;
40588;SDS011;26297;49.450;6.640;2022-10-16T10:17:10;2.22;;;1.45;;
40588;SDS011;26297;49.450;6.640;2022-10-16T10:20:34;1.48;;;1.38;;
40588;SDS011;26297;49.450;6.640;2022-10-16T10:23:54;1.33;;;1.23;;
40588;SDS011;26297;49.450;6.640;2022-10-16T10:27:33;4.95;;;1.58;;
40588;SDS011;26297;49.450;6.640;2022-10-16T10:40:00;1.17;;;1.17;;
40588;SDS011;26297;49.450;6.640;2022-10-16T11:01:50;4.15;;;1.77;;
40588;SDS011;26297;49.450;6.640;2022-10-16T11:42:41;1.33;;;1.13;;
40588;SDS011;26297;49.450;6.640;2022-10-16T11:46:04;0.90;;;0.90;;
40588;SDS011;26297;49.450;6.640;2022-10-16T11:49:26;2.90;;;1.33;;
40588;SDS011;26297;49.450;6.640;2022-10-16T11:52:48;4.30;;;1.40;;
40588;SDS011;26297;49.450;6.640;2022-10-16T11:56:05;2.55;;;1.23;;
40588;SDS011;26297;49.450;6.640;2022-10-16T13:29:04;3.97;;;1.77;;
40588;SDS011;26297;49.450;6.640;2022-10-16T13:32:17;2.92;;;2.47;;
40588;SDS011;26297;49.450;6.640;2022-10-16T13:48:11;1.48;;;1.38;;
40588;SDS011;26297;49.450;6.640;2022-10-16T13:51:16;2.00;;;1.90;;
40588;SDS011;26297;49.450;6.640;2022-10-16T13:54:24;1.98;;;1.83;;
40588;SDS011;26297;49.450;6.640;2022-10-16T13:57:28;3.53;;;1.95;;
40588;SDS011;26297;49.450;6.640;2022-10-16T14:00:31;2.53;;;2.08;;
40588;SDS011;26297;49.450;6.640;2022-10-16T14:03:36;1.85;;;1.73;;
40588;SDS011;26297;49.450;6.640;2022-10-16T14:06:41;3.35;;;2.10;;
40588;SDS011;26297;49.450;6.640;2022-10-16T14:09:49;1.98;;;1.63;;
40588;SDS011;26297;49.450;6.640;2022-10-16T14:12:55;2.80;;;1.75;;
40588;SDS011;26297;49.450;6.640;2022-10-16T14:16:05;2.03;;;1.75;;
40588;SDS011;26297;49.450;6.640;2022-10-16T14:19:20;2.35;;;2.00;;
40588;SDS011;26297;49.450;6.640;2022-10-16T14:25:46;1.90;;;1.80;;
40588;SDS011;26297;49.450;6.640;2022-10-16T14:29:01;4.28;;;3.45;;
40588;SDS011;26297;49.450;6.640;2022-10-16T14:32:20;2.72;;;1.83;;
40588;SDS011;26297;49.450;6.640;2022-10-16T14:35:28;2.10;;;1.70;;
40588;SDS011;26297;49.450;6.640;2022-10-16T14:38:40;2.33;;;1.95;;
40588;SDS011;26297;49.450;6.640;2022-10-16T14:45:55;5.00;;;1.90;;
40588;SDS011;26297;49.450;6.640;2022-10-16T14:49:03;1.58;;;1.48;;
40588;SDS011;26297;49.450;6.640;2022-10-16T14:52:13;3.42;;;1.80;;
40588;SDS011;26297;49.450;6.640;2022-10-16T14:55:17;4.63;;;2.15;;
40588;SDS011;26297;49.450;6.640;2022-10-16T14:58:21;3.15;;;2.22;;
40588;SDS011;26297;49.450;6.640;2022-10-16T15:01:25;3.20;;;1.95;;
40588;SDS011;26297;49.450;6.640;2022-10-16T15:08:52;2.10;;;1.60;;
40588;SDS011;26297;49.450;6.640;2022-10-16T15:11:55;2.45;;;1.48;;
40588;SDS011;26297;49.450;6.640;2022-10-16T15:19:26;2.13;;;1.83;;
40588;SDS011;26297;49.450;6.640;2022-10-16T15:22:30;1.42;;;1.27;;
40588;SDS011;26297;49.450;6.640;2022-10-16T15:26:10;1.70;;;1.38;;
40588;SDS011;26297;49.450;6.640;2022-10-16T15:29:28;3.67;;;1.80;;
40588;SDS011;26297;49.450;6.640;2022-10-16T17:08:53;3.40;;;2.27;;
40588;SDS011;26297;49.450;6.640;2022-10-16T17:16:48;4.43;;;1.60;;
40588;SDS011;26297;49.450;6.640;2022-10-16T17:23:37;4.10;;;2.88;;
40588;SDS011;26297;49.450;6.640;2022-10-16T17:26:43;3.15;;;2.38;;
40588;SDS011;26297;49.450;6.640;2022-10-16T17:29:59;4.13;;;2.30;;
40588;SDS011;26297;49.450;6.640;2022-10-16T17:33:03;4.55;;;2.45;;
40588;SDS011;26297;49.450;6.640;2022-10-16T17:36:09;2.80;;;1.98;;
40588;SDS011;26297;49.450;6.640;2022-10-16T17:39:23;5.40;;;2.20;;
40588;SDS011;26297;49.450;6.640;2022-10-16T17:42:29;2.17;;;1.70;;
40588;SDS011;26297;49.450;6.640;2022-10-16T17:45:38;4.93;;;2.30;;
40588;SDS011;26297;49.450;6.640;2022-10-16T17:48:50;3.78;;;2.05;;
40588;SDS011;26297;49.450;6.640;2022-10-16T17:52:04;3.22;;;2.20;;
40588;SDS011;26297;49.450;6.640;2022-10-16T17:55:13;4.80;;;2.28;;
40588;SDS011;26297;49.450;6.640;2022-10-16T17:58:22;3.67;;;2.38;;
40588;SDS011;26297;49.450;6.640;2022-10-16T18:01:37;2.55;;;2.10;;
40588;SDS011;26297;49.450;6.640;2022-10-16T18:05:25;4.38;;;2.60;;
40588;SDS011;26297;49.450;6.640;2022-10-16T18:08:34;4.75;;;2.45;;
40588;SDS011;26297;49.450;6.640;2022-10-16T18:17:44;6.95;;;3.47;;
40588;SDS011;26297;49.450;6.640;2022-10-16T18:20:59;6.30;;;2.35;;
40588;SDS011;26297;49.450;6.640;2022-10-16T18:24:04;2.42;;;2.22;;
40588;SDS011;26297;49.450;6.640;2022-10-16T18:27:09;3.25;;;2.40;;
40588;SDS011;26297;49.450;6.640;2022-10-16T18:34:22;3.60;;;2.33;;
40588;SDS011;26297;49.450;6.640;2022-10-16T18:37:25;2.65;;;2.42;;
40588;SDS011;26297;49.450;6.640;2022-10-16T18:40:35;2.20;;;2.00;;
40588;SDS011;26297;49.450;6.640;2022-10-16T18:43:41;4.97;;;2.53;;
40588;SDS011;26297;49.450;6.640;2022-10-16T18:51:36;4.90;;;3.25;;
40588;SDS011;26297;49.450;6.640;2022-10-16T18:54:58;3.63;;;2.67;;
40588;SDS011;26297;49.450;6.640;2022-10-16T18:58:06;8.65;;;3.58;;
40588;SDS011;26297;49.450;6.640;2022-10-16T19:01:10;3.85;;;2.83;;
40588;SDS011;26297;49.450;6.640;2022-10-16T19:04:23;6.32;;;3.65;;
40588;SDS011;26297;49.450;6.640;2022-10-16T19:07:29;5.00;;;3.53;;
40588;SDS011;26297;49.450;6.640;2022-10-16T19:10:50;4.75;;;2.95;;
40588;SDS011;26297;49.450;6.640;2022-10-16T19:13:57;5.72;;;2.80;;
40588;SDS011;26297;49.450;6.640;2022-10-16T19:17:04;7.47;;;2.90;;
40588;SDS011;26297;49.450;6.640;2022-10-16T19:20:10;8.18;;;2.55;;
40588;SDS011;26297;49.450;6.640;2022-10-16T19:26:06;5.57;;;2.95;;
40588;SDS011;26297;49.450;6.640;2022-10-16T19:29:25;5.63;;;2.45;;
40588;SDS011;26297;49.450;6.640;2022-10-16T19:32:37;2.80;;;2.50;;
40588;SDS011;26297;49.450;6.640;2022-10-16T19:36:10;6.43;;;3.50;;
40588;SDS011;26297;49.450;6.640;2022-10-16T19:43:00;4.55;;;2.22;;
40588;SDS011;26297;49.450;6.640;2022-10-16T19:49:56;4.68;;;2.63;;
40588;SDS011;26297;49.450;6.640;2022-10-16T19:56:12;4.95;;;2.97;;
40588;SDS011;26297;49.450;6.640;2022-10-16T19:59:49;6.45;;;3.08;;
40588;SDS011;26297;49.450;6.640;2022-10-16T20:03:31;5.68;;;3.20;;
40588;SDS011;26297;49.450;6.640;2022-10-16T20:06:46;6.07;;;2.97;;
40588;SDS011;26297;49.450;6.640;2022-10-16T20:09:55;4.13;;;2.77;;
40588;SDS011;26297;49.450;6.640;2022-10-16T20:16:27;6.82;;;3.55;;
40588;SDS011;26297;49.450;6.640;2022-10-16T20:19:58;5.32;;;3.03;;
40588;SDS011;26297;49.450;6.640;2022-10-16T20:27:24;6.03;;;3.20;;
40588;SDS011;26297;49.450;6.640;2022-10-16T20:30:53;5.30;;;2.90;;
40588;SDS011;26297;49.450;6.640;2022-10-16T20:34:09;4.28;;;3.78;;
40588;SDS011;26297;49.450;6.640;2022-10-16T20:38:36;4.38;;;2.95;;
40588;SDS011;26297;49.450;6.640;2022-10-16T20:41:57;6.78;;;2.85;;
40588;SDS011;26297;49.450;6.640;2022-10-16T20:48:57;7.55;;;3.20;;
40588;SDS011;26297;49.450;6.640;2022-10-16T20:52:15;4.05;;;3.38;;
40588;SDS011;26297;49.450;6.640;2022-10-16T20:55:27;4.07;;;3.22;;
